createdAt,value
2019-01-23T00:00:52.936Z,27.77
2019-01-23T00:03:20.175Z,27.00
2019-01-23T00:05:47.635Z,25.57
2019-01-23T00:08:14.892Z,25.07
2019-01-23T00:10:42.137Z,24.20
2019-01-23T00:13:09.419Z,24.33
2019-01-23T00:15:36.662Z,25.63
2019-01-23T00:18:04.020Z,25.23
2019-01-23T00:20:31.243Z,25.60
2019-01-23T00:22:58.484Z,25.23
2019-01-23T00:25:25.805Z,24.73
2019-01-23T00:27:53.034Z,25.73
2019-01-23T00:30:20.397Z,27.67
2019-01-23T00:32:47.666Z,23.63
2019-01-23T00:35:14.912Z,23.57
2019-01-23T00:37:42.170Z,27.73
2019-01-23T00:40:09.690Z,27.93
2019-01-23T00:42:36.979Z,27.57
2019-01-23T00:45:05.789Z,26.97
2019-01-23T00:47:33.090Z,27.17
2019-01-23T00:50:00.357Z,25.93
2019-01-23T00:52:27.731Z,23.17
2019-01-23T00:54:55.008Z,24.03
2019-01-23T00:57:22.276Z,26.40
2019-01-23T00:59:49.526Z,23.10
2019-01-23T01:02:16.785Z,24.23
2019-01-23T01:04:44.112Z,24.67
2019-01-23T01:07:11.674Z,24.40
2019-01-23T01:09:39.184Z,27.97
2019-01-23T01:12:06.466Z,25.97
2019-01-23T01:14:33.771Z,25.93
2019-01-23T01:17:00.996Z,25.57
2019-01-23T01:19:28.545Z,26.07
2019-01-23T01:21:55.802Z,26.30
2019-01-23T01:24:23.223Z,25.17
2019-01-23T01:26:50.450Z,26.43
2019-01-23T01:29:17.740Z,25.80
2019-01-23T01:31:44.981Z,27.33
2019-01-23T01:34:12.210Z,24.87
2019-01-23T01:36:39.583Z,24.63
2019-01-23T01:39:08.043Z,24.20
2019-01-23T01:41:35.630Z,25.60
2019-01-23T01:44:02.966Z,25.87
2019-01-23T01:46:30.290Z,26.63
2019-01-23T01:48:57.556Z,23.60
2019-01-23T01:51:24.830Z,24.50
2019-01-23T01:53:52.374Z,24.60
2019-01-23T01:56:19.612Z,25.30
2019-01-23T01:58:46.866Z,26.30
2019-01-23T02:01:14.117Z,24.57
2019-01-23T02:03:41.365Z,25.40
2019-01-23T02:06:08.726Z,27.10
2019-01-23T02:08:35.953Z,24.43
2019-01-23T02:11:03.444Z,23.37
2019-01-23T02:13:30.706Z,22.83
2019-01-23T02:15:57.945Z,25.17
2019-01-23T02:18:25.237Z,24.63
2019-01-23T02:20:52.561Z,28.23
2019-01-23T02:23:19.782Z,25.43
2019-01-23T02:25:47.033Z,24.93
2019-01-23T02:28:14.273Z,25.27
2019-01-23T02:30:41.571Z,24.90
2019-01-23T02:33:08.818Z,26.27
2019-01-23T02:35:36.074Z,24.07
2019-01-23T02:38:03.465Z,25.70
2019-01-23T02:40:30.697Z,22.90
2019-01-23T02:42:57.945Z,23.83
2019-01-23T02:45:25.288Z,25.77
2019-01-23T02:47:52.515Z,25.83
2019-01-23T02:50:19.827Z,26.50
2019-01-23T02:52:47.066Z,25.03
2019-01-23T02:55:14.280Z,26.47
2019-01-23T02:57:41.525Z,24.40
2019-01-23T03:00:11.744Z,26.93
2019-01-23T03:02:39.054Z,26.53
2019-01-23T03:05:08.894Z,27.13
2019-01-23T03:07:36.144Z,27.93
2019-01-23T03:10:05.491Z,26.47
2019-01-23T03:12:32.763Z,30.50
2019-01-23T03:15:00.034Z,26.23
2019-01-23T03:17:27.266Z,26.37
2019-01-23T03:19:54.639Z,27.17
2019-01-23T03:22:21.889Z,26.93
2019-01-23T03:24:49.130Z,26.53
2019-01-23T03:27:16.394Z,27.23
2019-01-23T03:29:43.626Z,27.90
2019-01-23T03:32:10.846Z,30.20
2019-01-23T03:34:38.103Z,30.47
2019-01-23T03:37:05.346Z,28.43
2019-01-23T03:39:32.589Z,26.77
2019-01-23T03:41:59.933Z,25.97
2019-01-23T03:44:27.185Z,27.30
2019-01-23T03:46:54.440Z,25.03
2019-01-23T03:49:21.681Z,28.33
2019-01-23T03:51:48.967Z,28.63
2019-01-23T03:54:16.237Z,25.60
2019-01-23T03:56:44.179Z,26.67
2019-01-23T03:59:11.390Z,26.13
2019-01-23T04:01:38.651Z,25.67
2019-01-23T04:04:05.993Z,26.63
2019-01-23T04:06:33.255Z,23.87
2019-01-23T04:09:00.638Z,25.97
2019-01-23T04:11:27.847Z,24.63
2019-01-23T04:13:55.101Z,25.07
2019-01-23T04:16:22.397Z,24.63
2019-01-23T04:18:49.650Z,22.13
2019-01-23T04:21:16.861Z,23.80
2019-01-23T04:23:44.140Z,23.37
2019-01-23T04:26:11.345Z,22.00
2019-01-23T04:28:38.562Z,24.10
2019-01-23T04:31:05.829Z,20.07
2019-01-23T04:33:33.128Z,23.63
2019-01-23T04:36:00.345Z,22.73
2019-01-23T04:38:27.575Z,21.20
2019-01-23T04:40:54.791Z,23.90
2019-01-23T04:43:22.050Z,21.17
2019-01-23T04:45:49.265Z,22.10
2019-01-23T04:48:16.561Z,19.87
2019-01-23T04:51:15.175Z,17.83
2019-01-23T04:53:44.507Z,20.87
2019-01-23T04:56:11.706Z,20.07
2019-01-23T04:58:38.931Z,20.33
2019-01-23T05:01:06.170Z,20.67
2019-01-23T05:03:33.396Z,18.83
2019-01-23T05:06:01.423Z,21.60
2019-01-23T05:08:28.698Z,20.20
2019-01-23T05:10:55.923Z,25.57
2019-01-23T05:13:23.135Z,21.03
2019-01-23T05:15:50.394Z,23.57
2019-01-23T05:18:17.607Z,21.07
2019-01-23T05:20:44.867Z,22.00
2019-01-23T05:23:12.068Z,25.47
2019-01-23T05:25:39.281Z,22.27
2019-01-23T05:28:06.527Z,22.20
2019-01-23T05:30:33.807Z,19.40
2019-01-23T05:33:01.019Z,19.43
2019-01-23T05:35:28.270Z,19.37
2019-01-23T05:37:55.447Z,18.50
2019-01-23T05:40:22.700Z,17.03
2019-01-23T05:42:49.925Z,21.30
2019-01-23T05:45:17.144Z,21.13
2019-01-23T05:47:44.369Z,18.97
2019-01-23T05:50:14.072Z,19.27
2019-01-23T05:52:41.390Z,20.93
2019-01-23T05:55:09.668Z,19.73
2019-01-23T05:57:36.897Z,20.57
2019-01-23T06:00:05.870Z,22.33
2019-01-23T06:02:33.108Z,25.17
2019-01-23T06:05:00.307Z,22.07
2019-01-23T06:07:27.540Z,23.33
2019-01-23T06:09:54.757Z,23.60
2019-01-23T06:12:22.060Z,29.20
2019-01-23T06:14:49.303Z,22.03
2019-01-23T06:17:16.527Z,19.93
2019-01-23T06:19:43.743Z,19.90
2019-01-23T06:22:11.009Z,21.53
2019-01-23T06:24:38.232Z,20.43
2019-01-23T06:27:05.427Z,24.13
2019-01-23T06:29:32.694Z,24.73
2019-01-23T06:31:59.906Z,24.20
2019-01-23T06:34:27.104Z,23.70
2019-01-23T06:36:54.827Z,27.87
2019-01-23T06:39:22.024Z,25.63
2019-01-23T06:41:49.227Z,24.53
2019-01-23T06:44:16.467Z,24.83
2019-01-23T06:46:43.764Z,21.93
2019-01-23T06:49:10.996Z,20.30
2019-01-23T06:51:38.193Z,16.83
2019-01-23T06:54:05.423Z,20.40
2019-01-23T06:56:32.828Z,22.67
2019-01-23T06:59:00.054Z,20.63
2019-01-23T07:01:27.271Z,18.53
2019-01-23T07:03:54.468Z,18.93
2019-01-23T07:06:21.687Z,20.27
2019-01-23T07:08:48.972Z,18.23
2019-01-23T07:11:16.217Z,24.73
2019-01-23T07:13:43.427Z,35.37
2019-01-23T07:16:10.729Z,32.90
2019-01-23T07:19:04.472Z,34.60
2019-01-23T07:21:31.833Z,34.67
2019-01-23T07:23:59.141Z,34.10
2019-01-23T07:26:26.368Z,32.13
2019-01-23T07:28:53.623Z,38.53
2019-01-23T07:31:20.847Z,35.10
2019-01-23T07:33:48.113Z,30.07
2019-01-23T07:36:15.350Z,30.90
2019-01-23T07:38:42.558Z,30.43
2019-01-23T07:41:09.807Z,32.73
2019-01-23T07:43:37.124Z,31.27
2019-01-23T07:46:04.586Z,34.30
2019-01-23T07:48:31.817Z,33.37
2019-01-23T07:50:59.016Z,35.23
2019-01-23T07:53:26.272Z,32.80
2019-01-23T07:55:53.484Z,29.63
2019-01-23T07:58:20.701Z,28.50
2019-01-23T08:00:47.926Z,33.03
2019-01-23T08:03:15.143Z,29.53
2019-01-23T08:05:42.366Z,30.83
2019-01-23T08:08:09.623Z,35.57
2019-01-23T08:10:36.795Z,37.43
2019-01-23T08:13:04.277Z,32.27
2019-01-23T08:15:34.073Z,33.83
2019-01-23T08:18:02.355Z,35.97
2019-01-23T08:20:29.839Z,35.83
2019-01-23T08:22:57.091Z,36.00
2019-01-23T08:25:24.912Z,38.20
2019-01-23T08:27:52.292Z,35.40
2019-01-23T08:30:20.211Z,39.63
2019-01-23T08:32:47.483Z,37.53
2019-01-23T08:35:15.037Z,35.33
2019-01-23T08:37:42.260Z,40.03
2019-01-23T08:40:11.448Z,39.30
2019-01-23T08:42:38.783Z,34.50
2019-01-23T08:45:07.184Z,40.23
2019-01-23T08:47:34.514Z,39.97
2019-01-23T08:50:01.731Z,40.03
2019-01-23T08:52:29.738Z,38.03
2019-01-23T08:54:56.975Z,34.57
2019-01-23T08:57:24.184Z,40.77
2019-01-23T08:59:51.443Z,38.90
2019-01-23T09:02:18.662Z,40.03
2019-01-23T09:04:46.046Z,39.20
2019-01-23T09:07:13.330Z,40.83
2019-01-23T09:09:40.544Z,35.87
2019-01-23T09:12:08.686Z,40.33
2019-01-23T09:14:36.207Z,40.13
2019-01-23T09:17:03.617Z,41.17
2019-01-23T09:19:30.822Z,40.30
2019-01-23T09:21:58.295Z,39.87
2019-01-23T09:24:25.522Z,40.67
2019-01-23T09:26:52.717Z,39.97
2019-01-23T09:29:20.045Z,40.23
2019-01-23T09:32:38.141Z,40.23
2019-01-23T09:35:43.820Z,39.27
2019-01-23T09:39:03.818Z,38.80
2019-01-23T09:42:07.154Z,37.43
2019-01-23T09:45:09.367Z,36.97
2019-01-23T09:47:53.602Z,39.03
2019-01-23T09:51:07.944Z,37.60
2019-01-23T09:53:43.715Z,39.63
2019-01-23T09:56:13.072Z,32.17
2019-01-23T09:58:40.323Z,34.80
2019-01-23T10:01:07.543Z,32.73
2019-01-23T10:03:34.772Z,38.60
2019-01-23T10:06:02.017Z,36.33
2019-01-23T10:08:29.323Z,37.27
2019-01-23T10:10:56.601Z,38.57
2019-01-23T10:13:23.799Z,38.63
2019-01-23T10:16:01.077Z,37.00
2019-01-23T10:18:28.300Z,39.47
2019-01-23T10:20:55.644Z,35.33
2019-01-23T10:23:22.915Z,38.17
2019-01-23T10:25:50.147Z,37.90
2019-01-23T10:28:17.373Z,38.17
2019-01-23T10:30:44.618Z,36.20
2019-01-23T10:33:11.827Z,37.03
2019-01-23T10:35:39.966Z,37.80
2019-01-23T10:38:07.228Z,37.57
2019-01-23T10:40:37.361Z,37.53
2019-01-23T10:43:04.982Z,37.77
2019-01-23T10:45:32.240Z,36.87
2019-01-23T10:47:59.500Z,35.70
2019-01-23T10:50:27.071Z,35.57
2019-01-23T10:52:54.320Z,37.80
2019-01-23T10:55:21.580Z,37.40
2019-01-23T10:57:48.911Z,35.57
2019-01-23T11:00:17.318Z,36.00
2019-01-23T11:02:44.564Z,37.73
2019-01-23T11:05:14.684Z,37.40
2019-01-23T11:07:41.951Z,36.03
2019-01-23T11:10:12.287Z,33.83
2019-01-23T11:12:39.701Z,34.97
2019-01-23T11:15:07.096Z,32.33
2019-01-23T11:17:34.325Z,33.50
2019-01-23T11:20:01.648Z,31.10
2019-01-23T11:22:29.030Z,29.93
2019-01-23T11:24:56.330Z,29.97
2019-01-23T11:27:23.578Z,29.20
2019-01-23T11:29:50.786Z,29.10
2019-01-23T11:32:17.995Z,29.63
2019-01-23T11:34:45.262Z,30.13
2019-01-23T11:37:12.457Z,28.73
2019-01-23T11:39:39.802Z,28.40
2019-01-23T11:42:07.056Z,26.47
2019-01-23T11:44:34.258Z,24.23
2019-01-23T11:47:01.603Z,26.57
2019-01-23T11:49:28.859Z,24.17
2019-01-23T11:51:56.128Z,23.80
2019-01-23T11:54:23.688Z,22.00
2019-01-23T11:56:51.320Z,20.83
2019-01-23T11:59:18.505Z,21.97
2019-01-23T12:01:46.136Z,21.03
2019-01-23T12:04:13.412Z,21.30
2019-01-23T12:06:40.615Z,19.80
2019-01-23T12:09:09.114Z,18.93
2019-01-23T12:11:36.480Z,17.47
2019-01-23T12:14:03.999Z,17.93
2019-01-23T12:16:31.298Z,17.30
2019-01-23T12:18:58.530Z,17.50
2019-01-23T12:21:25.729Z,16.33
2019-01-23T12:23:58.236Z,15.30
2019-01-23T12:26:22.091Z,14.70
2019-01-23T12:28:49.382Z,15.73
2019-01-23T12:31:16.601Z,15.50
2019-01-23T12:33:43.832Z,15.33
2019-01-23T12:36:11.114Z,14.83
2019-01-23T12:38:40.062Z,15.13
2019-01-23T12:41:07.268Z,19.23
2019-01-23T12:43:34.608Z,19.77
2019-01-23T12:46:01.890Z,22.00
2019-01-23T12:48:29.135Z,20.17
2019-01-23T12:50:56.485Z,21.37
2019-01-23T12:53:23.709Z,19.77
2019-01-23T12:55:50.896Z,17.90
2019-01-23T12:58:18.115Z,20.07
2019-01-23T13:00:45.431Z,20.53
2019-01-23T13:03:12.705Z,21.37
2019-01-23T13:05:39.929Z,21.57
2019-01-23T13:08:07.387Z,22.00
2019-01-23T13:10:34.869Z,22.40
2019-01-23T13:13:02.124Z,23.50
2019-01-23T13:15:29.338Z,21.37
2019-01-23T13:17:57.029Z,22.03
2019-01-23T13:20:25.090Z,25.17
2019-01-23T13:22:52.695Z,25.30
2019-01-23T13:25:22.091Z,27.73
2019-01-23T13:27:50.284Z,30.07
2019-01-23T13:30:19.400Z,29.90
2019-01-23T13:32:46.641Z,29.63
2019-01-23T13:35:15.508Z,30.67
2019-01-23T13:37:43.085Z,27.73
2019-01-23T13:40:17.849Z,29.17
2019-01-23T13:42:45.220Z,29.07
2019-01-23T13:45:13.021Z,29.77
2019-01-23T13:47:40.266Z,29.63
2019-01-23T13:50:08.343Z,29.37
2019-01-23T13:52:35.622Z,30.60
2019-01-23T13:55:04.153Z,30.70
2019-01-23T13:57:31.400Z,31.10
2019-01-23T13:59:58.621Z,29.40
2019-01-23T14:02:25.811Z,31.60
2019-01-23T14:04:53.028Z,31.40
2019-01-23T14:07:20.245Z,31.33
2019-01-23T14:09:47.499Z,33.07
2019-01-23T14:12:14.710Z,31.57
2019-01-23T14:14:42.023Z,31.53
2019-01-23T14:17:09.273Z,30.17
2019-01-23T14:19:36.511Z,31.20
2019-01-23T14:22:04.010Z,31.93
2019-01-23T14:24:31.282Z,31.20
2019-01-23T14:26:58.512Z,30.33
2019-01-23T14:29:25.753Z,31.50
2019-01-23T14:31:53.404Z,30.70
2019-01-23T14:34:20.809Z,30.97
2019-01-23T14:36:48.007Z,29.77
2019-01-23T14:39:15.250Z,28.83
2019-01-23T14:41:42.527Z,29.87
2019-01-23T14:44:09.805Z,29.57
2019-01-23T14:46:37.144Z,28.97
2019-01-23T14:49:04.511Z,31.13
2019-01-23T14:51:31.849Z,28.93
2019-01-23T14:53:59.044Z,29.20
2019-01-23T14:56:26.264Z,31.43
2019-01-23T14:58:53.492Z,31.37
2019-01-23T15:01:20.722Z,30.07
2019-01-23T15:03:48.007Z,29.33
2019-01-23T15:06:15.333Z,29.70
2019-01-23T15:08:42.554Z,31.63
2019-01-23T15:11:09.827Z,30.00
2019-01-23T15:13:37.063Z,28.93
2019-01-23T15:16:04.437Z,29.40
2019-01-23T15:18:31.646Z,30.60
2019-01-23T15:21:00.991Z,28.20
2019-01-23T15:23:28.273Z,29.50
2019-01-23T15:25:55.857Z,32.37
2019-01-23T15:28:23.177Z,28.83
2019-01-23T15:30:50.433Z,29.13
2019-01-23T15:33:17.688Z,31.37
2019-01-23T15:35:44.908Z,31.10
2019-01-23T15:38:12.147Z,30.93
2019-01-23T15:40:39.461Z,26.63
2019-01-23T15:43:06.682Z,32.00
2019-01-23T15:45:34.054Z,30.80
2019-01-23T15:48:01.292Z,31.80
2019-01-23T15:50:28.560Z,30.77
2019-01-23T15:52:55.843Z,30.00
2019-01-23T15:55:24.145Z,28.53
2019-01-23T15:57:51.392Z,28.67
2019-01-23T16:00:24.121Z,29.90
2019-01-23T16:02:51.460Z,25.67
2019-01-23T16:05:18.875Z,30.43
2019-01-23T16:07:46.185Z,27.20
2019-01-23T16:10:16.206Z,29.43
2019-01-23T16:12:43.555Z,28.47
2019-01-23T16:15:11.151Z,28.63
2019-01-23T16:17:38.480Z,28.80
2019-01-23T16:20:06.328Z,26.70
2019-01-23T16:22:34.069Z,30.10
2019-01-23T16:25:01.882Z,28.57
2019-01-23T16:27:29.520Z,28.43
2019-01-23T16:29:56.817Z,28.40
2019-01-23T16:32:31.320Z,30.60
2019-01-23T16:34:54.136Z,28.67
2019-01-23T16:37:21.383Z,29.17
2019-01-23T16:39:48.587Z,28.23
2019-01-23T16:42:15.926Z,29.57
2019-01-23T16:44:43.139Z,31.30
2019-01-23T16:47:10.380Z,29.87
2019-01-23T16:49:37.648Z,29.10
2019-01-23T16:52:04.852Z,28.60
2019-01-23T16:54:32.121Z,27.87
2019-01-23T16:56:59.374Z,30.50
2019-01-23T16:59:26.912Z,27.33
2019-01-23T17:01:54.432Z,27.90
2019-01-23T17:04:21.654Z,26.30
2019-01-23T17:06:48.855Z,26.00
2019-01-23T17:09:16.094Z,25.20
2019-01-23T17:11:43.308Z,24.03
2019-01-23T17:14:10.554Z,23.40
2019-01-23T17:16:38.116Z,22.00
2019-01-23T17:19:05.316Z,21.97
2019-01-23T17:21:32.570Z,24.70
2019-01-23T17:23:59.766Z,23.03
2019-01-23T17:26:27.184Z,24.90
2019-01-23T17:28:54.384Z,24.37
2019-01-23T17:31:21.968Z,20.93
2019-01-23T17:33:49.312Z,22.50
2019-01-23T17:36:16.516Z,23.53
2019-01-23T17:38:43.976Z,22.70
2019-01-23T17:41:11.357Z,22.30
2019-01-23T17:43:38.852Z,21.37
2019-01-23T17:46:06.245Z,19.40
2019-01-23T17:48:34.093Z,21.40
2019-01-23T17:51:01.365Z,21.33
2019-01-23T17:53:28.703Z,22.63
2019-01-23T17:55:56.026Z,24.33
2019-01-23T17:58:23.248Z,26.10
2019-01-23T18:00:54.543Z,26.83
2019-01-23T18:03:22.370Z,27.67
2019-01-23T18:05:51.302Z,29.97
2019-01-23T18:08:18.733Z,31.37
2019-01-23T18:10:45.983Z,31.20
2019-01-23T18:13:13.252Z,31.80
2019-01-23T18:15:40.538Z,33.47
2019-01-23T18:18:08.403Z,31.67
2019-01-23T18:20:35.671Z,32.83
2019-01-23T18:23:02.995Z,32.00
2019-01-23T18:25:30.211Z,32.53
2019-01-23T18:27:58.077Z,32.80
2019-01-23T18:30:31.508Z,31.70
2019-01-23T18:33:00.299Z,32.73
2019-01-23T18:35:48.607Z,32.80
2019-01-23T18:38:23.730Z,30.83
2019-01-23T18:41:25.311Z,31.83
2019-01-23T18:44:23.211Z,31.83
2019-01-23T18:47:33.822Z,31.97
2019-01-23T18:50:26.245Z,31.70
2019-01-23T18:52:53.502Z,29.63
2019-01-23T18:55:22.483Z,33.73
2019-01-23T18:57:49.737Z,30.07
2019-01-23T19:00:18.758Z,29.57
2019-01-23T19:02:45.973Z,33.17
2019-01-23T19:05:15.881Z,33.70
2019-01-23T19:07:43.122Z,33.57
2019-01-23T19:10:11.609Z,32.20
2019-01-23T19:12:38.814Z,32.70
2019-01-23T19:15:07.757Z,33.73
2019-01-23T19:17:34.979Z,33.77
2019-01-23T19:20:03.520Z,33.80
2019-01-23T19:22:30.730Z,33.93
2019-01-23T19:24:57.926Z,35.43
2019-01-23T19:27:25.410Z,33.47
2019-01-23T19:29:52.630Z,34.77
2019-01-23T19:32:21.035Z,35.30
2019-01-23T19:34:48.497Z,32.60
2019-01-23T19:37:15.873Z,31.93
2019-01-23T19:39:43.431Z,32.97
2019-01-23T19:42:11.701Z,32.63
2019-01-23T19:44:38.935Z,34.77
2019-01-23T19:47:06.169Z,34.20
2019-01-23T19:49:33.460Z,34.30
2019-01-23T19:52:00.758Z,32.97
2019-01-23T19:54:28.004Z,31.00
2019-01-23T19:56:55.231Z,32.90
2019-01-23T19:59:24.233Z,28.33
2019-01-23T20:01:51.504Z,27.33
2019-01-23T20:04:18.736Z,31.60
2019-01-23T20:06:45.952Z,29.70
2019-01-23T20:09:13.212Z,29.13
2019-01-23T20:11:40.505Z,32.63
2019-01-23T20:14:07.747Z,30.40
2019-01-23T20:16:35.019Z,29.07
2019-01-23T20:19:05.166Z,29.57
2019-01-23T20:21:32.369Z,32.23
2019-01-23T20:23:59.800Z,32.60
2019-01-23T20:26:31.644Z,34.30
2019-01-23T20:28:58.896Z,32.40
2019-01-23T20:31:26.202Z,31.67
2019-01-23T20:33:53.476Z,31.67
2019-01-23T20:36:20.859Z,32.30
2019-01-23T20:38:48.078Z,33.23
2019-01-23T20:41:15.300Z,30.37
2019-01-23T20:43:42.491Z,29.47
2019-01-23T20:46:09.719Z,30.33
2019-01-23T20:48:37.027Z,27.53
2019-01-23T20:51:04.387Z,30.87
2019-01-23T20:53:31.647Z,28.07
2019-01-23T20:55:58.908Z,29.57
2019-01-23T20:58:26.167Z,29.73
2019-01-23T21:00:53.439Z,33.43
2019-01-23T21:03:20.709Z,29.00
2019-01-23T21:05:47.945Z,32.17
2019-01-23T21:08:15.293Z,32.07
2019-01-23T21:10:42.528Z,31.67
2019-01-23T21:13:09.808Z,27.67
2019-01-23T21:15:37.061Z,29.50
2019-01-23T21:18:05.087Z,26.67
2019-01-23T21:20:34.840Z,32.03
2019-01-23T21:23:02.055Z,31.30
2019-01-23T21:25:29.324Z,32.73
2019-01-23T21:27:56.673Z,30.30
2019-01-23T21:30:25.204Z,34.83
2019-01-23T21:32:52.438Z,32.57
2019-01-23T21:35:20.324Z,29.27
2019-01-23T21:37:47.798Z,29.00
2019-01-23T21:40:17.447Z,29.57
2019-01-23T21:42:44.902Z,28.87
2019-01-23T21:45:12.557Z,31.20
2019-01-23T21:47:39.948Z,31.70
2019-01-23T21:50:10.247Z,28.33
2019-01-23T21:52:37.522Z,26.83
2019-01-23T21:55:05.687Z,33.60
2019-01-23T21:57:32.933Z,33.77
2019-01-23T22:00:00.212Z,33.10
2019-01-23T22:02:27.417Z,35.43
2019-01-23T22:04:54.682Z,33.27
2019-01-23T22:07:21.915Z,33.70
2019-01-23T22:09:49.119Z,30.50
2019-01-23T22:12:16.361Z,31.37
2019-01-23T22:14:43.582Z,35.70
2019-01-23T22:17:10.828Z,35.63
2019-01-23T22:19:38.092Z,36.77
2019-01-23T22:22:05.752Z,32.93
2019-01-23T22:24:33.018Z,30.67
2019-01-23T22:27:00.245Z,34.40
2019-01-23T22:29:27.427Z,36.37
2019-01-23T22:31:54.694Z,36.30
2019-01-23T22:34:21.891Z,36.67
2019-01-23T22:36:49.103Z,36.17
2019-01-23T22:39:16.392Z,35.10
2019-01-23T22:41:43.552Z,37.60
2019-01-23T22:44:10.764Z,36.30
2019-01-23T22:46:38.051Z,37.50
2019-01-23T22:49:05.229Z,38.67
2019-01-23T22:51:32.481Z,37.30
2019-01-23T22:53:59.698Z,37.20
2019-01-23T22:56:26.918Z,37.80
2019-01-23T22:58:54.158Z,35.97
2019-01-23T23:01:27.163Z,38.53
2019-01-23T23:03:54.524Z,36.70
2019-01-23T23:06:22.418Z,36.27
2019-01-23T23:08:50.607Z,37.27
2019-01-23T23:11:17.904Z,36.23
2019-01-23T23:13:45.151Z,36.57
2019-01-23T23:16:12.372Z,36.87
2019-01-23T23:18:39.644Z,37.37
2019-01-23T23:21:06.867Z,36.67
2019-01-23T23:23:34.083Z,34.83
2019-01-23T23:26:01.339Z,32.27
2019-01-23T23:28:28.537Z,34.17
2019-01-23T23:30:55.835Z,30.70
2019-01-23T23:33:23.073Z,32.17
2019-01-23T23:35:50.272Z,31.17
2019-01-23T23:38:17.526Z,31.40
2019-01-23T23:40:44.944Z,29.80
2019-01-23T23:43:12.186Z,27.27
2019-01-23T23:45:39.424Z,25.90
2019-01-23T23:48:06.732Z,27.57
2019-01-23T23:50:36.418Z,26.37
2019-01-23T23:53:03.935Z,29.07
2019-01-23T23:55:31.573Z,27.70
2019-01-23T23:57:58.803Z,28.97
